createdAt,value
2018-08-09T00:00:57.384Z,4.83
2018-08-09T00:03:25.781Z,5.67
2018-08-09T00:05:54.205Z,5.33
2018-08-09T00:08:22.657Z,6.07
2018-08-09T00:10:51.097Z,5.60
2018-08-09T00:13:19.495Z,6.10
2018-08-09T00:15:47.901Z,5.80
2018-08-09T00:18:16.293Z,5.60
2018-08-09T00:20:44.786Z,5.47
2018-08-09T00:23:13.212Z,4.97
2018-08-09T00:25:41.625Z,5.20
2018-08-09T00:28:10.090Z,5.20
2018-08-09T00:30:38.530Z,5.50
2018-08-09T00:33:06.980Z,5.97
2018-08-09T00:35:35.369Z,5.67
2018-08-09T00:38:03.860Z,5.70
2018-08-09T00:40:32.286Z,6.03
2018-08-09T00:43:00.801Z,5.80
2018-08-09T00:45:29.217Z,5.40
2018-08-09T00:47:57.683Z,5.90
2018-08-09T00:50:26.082Z,6.00
2018-08-09T00:52:54.509Z,6.10
2018-08-09T00:55:22.945Z,5.67
2018-08-09T00:57:51.355Z,5.03
2018-08-09T01:00:19.758Z,5.87
2018-08-09T01:02:48.178Z,5.90
2018-08-09T01:05:16.663Z,5.07
2018-08-09T01:07:45.087Z,5.30
2018-08-09T01:10:13.517Z,5.43
2018-08-09T01:12:41.937Z,5.73
2018-08-09T01:15:10.317Z,5.20
2018-08-09T01:17:38.758Z,5.20
2018-08-09T01:20:07.617Z,5.47
2018-08-09T01:22:36.052Z,6.37
2018-08-09T01:25:04.474Z,5.90
2018-08-09T01:27:32.893Z,5.43
2018-08-09T01:30:01.311Z,5.50
2018-08-09T01:32:29.730Z,6.87
2018-08-09T01:34:58.174Z,5.60
2018-08-09T01:37:26.620Z,5.57
2018-08-09T01:39:55.037Z,6.07
2018-08-09T01:42:34.681Z,5.43
2018-08-09T01:45:03.128Z,5.13
2018-08-09T01:47:31.580Z,6.17
2018-08-09T01:50:00.016Z,5.83
2018-08-09T01:52:28.453Z,5.90
2018-08-09T01:54:56.858Z,6.23
2018-08-09T01:57:25.337Z,6.20
2018-08-09T01:59:53.808Z,5.90
2018-08-09T02:02:22.241Z,5.80
2018-08-09T02:04:50.754Z,5.70
2018-08-09T02:07:19.150Z,5.80
2018-08-09T02:09:47.581Z,5.43
2018-08-09T02:12:16.006Z,5.83
2018-08-09T02:14:44.442Z,5.70
2018-08-09T02:17:12.902Z,5.17
2018-08-09T02:19:41.293Z,5.70
2018-08-09T02:22:09.749Z,5.10
2018-08-09T02:24:38.169Z,5.57
2018-08-09T02:27:06.613Z,5.83
2018-08-09T02:29:35.021Z,5.37
2018-08-09T02:32:03.514Z,6.07
2018-08-09T02:34:31.939Z,5.77
2018-08-09T02:37:00.379Z,5.97
2018-08-09T02:39:28.806Z,5.77
2018-08-09T02:41:57.304Z,5.77
2018-08-09T02:44:25.778Z,6.10
2018-08-09T02:46:54.197Z,5.93
2018-08-09T02:49:22.660Z,5.77
2018-08-09T02:51:51.097Z,6.53
2018-08-09T02:54:19.549Z,6.90
2018-08-09T02:56:47.955Z,6.07
2018-08-09T02:59:16.394Z,6.40
2018-08-09T03:01:44.843Z,6.70
2018-08-09T03:04:13.392Z,7.17
2018-08-09T03:06:41.906Z,6.50
2018-08-09T03:09:12.505Z,6.90
2018-08-09T03:11:41.705Z,6.93
2018-08-09T03:14:10.289Z,6.67
2018-08-09T03:16:38.693Z,6.47
2018-08-09T03:19:07.149Z,6.17
2018-08-09T03:21:35.598Z,6.23
2018-08-09T03:24:04.064Z,5.80
2018-08-09T03:26:32.444Z,6.30
2018-08-09T03:29:00.878Z,5.83
2018-08-09T03:31:29.293Z,5.80
2018-08-09T03:33:57.750Z,5.27
2018-08-09T03:36:26.213Z,5.43
2018-08-09T03:38:54.667Z,5.57
2018-08-09T03:41:23.068Z,6.00
2018-08-09T03:43:51.568Z,6.13
2018-08-09T03:49:32.513Z,5.93
2018-08-09T03:52:00.929Z,5.93
2018-08-09T03:54:29.425Z,5.53
2018-08-09T03:56:57.833Z,5.60
2018-08-09T03:59:26.267Z,5.40
2018-08-09T04:01:54.702Z,6.20
2018-08-09T04:04:23.103Z,6.13
2018-08-09T04:06:51.512Z,5.67
2018-08-09T04:09:19.940Z,6.17
2018-08-09T04:11:48.346Z,5.90
2018-08-09T04:14:16.850Z,6.27
2018-08-09T04:16:45.258Z,5.43
2018-08-09T04:19:13.713Z,5.80
2018-08-09T04:21:42.112Z,5.63
2018-08-09T04:24:10.573Z,5.90
2018-08-09T04:26:39.017Z,5.60
2018-08-09T04:29:07.405Z,5.90
2018-08-09T04:31:35.828Z,5.50
2018-08-09T04:34:04.260Z,5.70
2018-08-09T04:36:32.751Z,5.87
2018-08-09T04:39:01.166Z,5.20
2018-08-09T04:41:29.597Z,5.43
2018-08-09T04:43:58.128Z,5.57
2018-08-09T04:46:26.535Z,5.63
2018-08-09T04:48:55.012Z,6.23
2018-08-09T04:51:23.417Z,6.33
2018-08-09T04:53:51.873Z,6.03
2018-08-09T04:56:20.326Z,6.20
2018-08-09T04:58:48.772Z,6.13
2018-08-09T05:01:17.177Z,5.97
2018-08-09T05:03:45.607Z,6.77
2018-08-09T05:06:14.060Z,6.20
2018-08-09T05:08:42.684Z,6.63
2018-08-09T05:11:11.154Z,6.97
2018-08-09T05:13:39.577Z,6.43
2018-08-09T05:16:08.000Z,6.57
2018-08-09T05:18:36.491Z,6.20
2018-08-09T05:21:04.889Z,6.63
2018-08-09T05:23:33.305Z,6.60
2018-08-09T05:26:01.746Z,6.23
2018-08-09T05:28:30.185Z,6.40
2018-08-09T05:30:58.649Z,6.07
2018-08-09T05:33:27.085Z,6.00
2018-08-09T05:35:55.506Z,6.37
2018-08-09T05:38:23.893Z,6.37
2018-08-09T05:40:52.342Z,6.37
2018-08-09T05:43:20.769Z,6.23
2018-08-09T05:45:49.195Z,6.20
2018-08-09T05:48:17.710Z,6.00
2018-08-09T05:50:46.111Z,6.80
2018-08-09T05:53:14.615Z,6.07
2018-08-09T05:55:43.037Z,6.07
2018-08-09T05:58:11.408Z,6.90
2018-08-09T06:00:39.905Z,6.60
2018-08-09T06:03:08.341Z,6.47
2018-08-09T06:05:36.976Z,6.63
2018-08-09T06:08:05.384Z,6.70
2018-08-09T06:10:33.822Z,6.87
2018-08-09T06:13:02.263Z,7.13
2018-08-09T06:15:30.742Z,6.60
2018-08-09T06:17:59.181Z,7.37
2018-08-09T06:20:27.650Z,6.63
2018-08-09T06:22:56.088Z,6.87
2018-08-09T06:25:24.520Z,6.80
2018-08-09T06:27:52.979Z,6.60
2018-08-09T06:30:21.492Z,6.93
2018-08-09T06:32:49.978Z,7.10
2018-08-09T06:35:18.740Z,6.90
2018-08-09T06:37:47.232Z,7.07
2018-08-09T06:40:15.702Z,6.90
2018-08-09T06:42:45.034Z,6.20
2018-08-09T06:45:13.561Z,7.47
2018-08-09T06:47:42.033Z,7.30
2018-08-09T06:50:12.121Z,6.93
2018-08-09T06:52:40.546Z,7.23
2018-08-09T06:55:09.009Z,6.60
2018-08-09T06:57:37.529Z,6.07
2018-08-09T07:00:08.677Z,6.10
2018-08-09T07:02:37.081Z,7.33
2018-08-09T07:05:05.699Z,6.13
2018-08-09T07:07:34.137Z,5.70
2018-08-09T07:10:02.696Z,6.23
2018-08-09T07:12:31.481Z,6.57
2018-08-09T07:15:16.046Z,6.60
2018-08-09T07:17:49.054Z,6.90
2018-08-09T07:20:17.520Z,6.40
2018-08-09T07:22:46.247Z,6.63
2018-08-09T07:25:14.681Z,6.50
2018-08-09T07:27:43.144Z,6.17
2018-08-09T07:30:13.073Z,6.57
2018-08-09T07:32:41.517Z,6.33
2018-08-09T07:35:11.124Z,6.60
2018-08-09T07:37:39.758Z,7.70
2018-08-09T07:40:10.703Z,6.60
2018-08-09T07:42:39.571Z,7.30
2018-08-09T07:45:10.230Z,7.07
2018-08-09T07:47:43.747Z,6.93
2018-08-09T07:50:12.233Z,6.47
2018-08-09T07:52:40.681Z,6.10
2018-08-09T07:55:10.461Z,6.60
2018-08-09T07:57:39.545Z,6.83
2018-08-09T08:00:10.763Z,7.30
2018-08-09T08:02:39.241Z,7.17
2018-08-09T08:05:07.873Z,6.50
2018-08-09T08:07:36.616Z,6.80
2018-08-09T08:10:06.823Z,7.90
2018-08-09T08:12:35.213Z,7.20
2018-08-09T08:15:03.758Z,7.17
2018-08-09T08:17:32.231Z,6.87
2018-08-09T08:20:00.638Z,7.10
2018-08-09T08:22:29.445Z,6.60
2018-08-09T08:24:57.890Z,6.70
2018-08-09T08:27:30.788Z,7.13
2018-08-09T08:29:59.392Z,6.73
2018-08-09T08:32:27.872Z,6.20
2018-08-09T08:34:56.377Z,7.43
2018-08-09T08:37:24.833Z,7.03
2018-08-09T08:39:53.300Z,7.10
2018-08-09T08:42:28.021Z,7.43
2018-08-09T08:44:56.486Z,7.90
2018-08-09T08:47:24.965Z,7.67
2018-08-09T08:49:53.353Z,7.87
2018-08-09T08:52:21.865Z,6.60
2018-08-09T08:54:50.450Z,6.70
2018-08-09T08:57:18.943Z,7.60
2018-08-09T08:59:47.962Z,7.23
2018-08-09T09:02:16.377Z,7.30
2018-08-09T09:04:44.794Z,6.93
2018-08-09T09:07:13.278Z,6.90
2018-08-09T09:09:41.684Z,7.43
2018-08-09T09:12:10.159Z,6.65
2018-08-09T09:14:38.585Z,7.03
2018-08-09T09:17:07.049Z,7.00
2018-08-09T09:19:35.532Z,6.05
2018-08-09T09:22:04.110Z,7.10
2018-08-09T09:24:32.550Z,7.10
2018-08-09T09:27:01.146Z,6.90
2018-08-09T09:29:29.553Z,7.03
2018-08-09T09:31:58.080Z,7.10
2018-08-09T09:34:26.557Z,7.20
2018-08-09T09:36:54.997Z,6.67
2018-08-09T09:39:23.409Z,6.33
2018-08-09T09:41:51.953Z,6.90
2018-08-09T09:44:20.434Z,6.80
2018-08-09T09:46:48.925Z,5.90
2018-08-09T09:49:17.360Z,7.03
2018-08-09T09:51:45.953Z,7.63
2018-08-09T09:54:14.405Z,6.77
2018-08-09T09:56:42.845Z,6.60
2018-08-09T09:59:11.281Z,7.60
2018-08-09T10:01:39.808Z,6.80
2018-08-09T10:04:08.254Z,6.47
2018-08-09T10:06:36.701Z,6.73
2018-08-09T10:09:08.551Z,6.80
2018-08-09T10:11:37.044Z,6.43
2018-08-09T10:14:05.632Z,6.63
2018-08-09T10:16:34.115Z,6.90
2018-08-09T10:19:02.566Z,6.20
2018-08-09T10:21:31.033Z,6.42
2018-08-09T10:23:59.481Z,5.97
2018-08-09T10:26:27.912Z,5.97
2018-08-09T10:28:56.345Z,5.95
2018-08-09T10:31:24.800Z,6.12
2018-08-09T10:33:57.203Z,6.55
2018-08-09T10:36:25.660Z,6.45
2018-08-09T10:38:54.126Z,6.45
2018-08-09T10:41:22.647Z,6.87
2018-08-09T10:43:51.146Z,6.87
2018-08-09T10:46:19.555Z,5.70
2018-08-09T10:48:48.361Z,6.37
2018-08-09T10:51:16.824Z,6.15
2018-08-09T10:53:45.274Z,6.50
2018-08-09T10:56:13.689Z,6.58
2018-08-09T10:58:42.113Z,6.67
2018-08-09T11:01:10.540Z,6.10
2018-08-09T11:03:43.691Z,5.83
2018-08-09T11:06:12.109Z,5.85
2018-08-09T11:08:40.600Z,6.22
2018-08-09T11:11:12.610Z,5.37
2018-08-09T11:13:42.658Z,5.50
2018-08-09T11:16:11.752Z,5.47
2018-08-09T11:18:40.246Z,5.87
2018-08-09T11:21:08.758Z,5.70
2018-08-09T11:23:37.245Z,5.75
2018-08-09T11:26:05.651Z,5.70
2018-08-09T11:28:34.049Z,5.50
2018-08-09T11:31:02.441Z,5.55
2018-08-09T11:33:30.959Z,5.78
2018-08-09T11:35:59.374Z,5.65
2018-08-09T11:38:27.921Z,5.87
2018-08-09T11:40:56.357Z,6.35
2018-08-09T11:43:24.825Z,5.60
2018-08-09T11:45:53.251Z,6.08
2018-08-09T11:48:21.720Z,5.80
2018-08-09T11:50:50.236Z,6.53
2018-08-09T11:53:18.696Z,6.83
2018-08-09T11:55:47.121Z,6.15
2018-08-09T11:58:15.593Z,6.58
2018-08-09T12:00:44.063Z,6.22
2018-08-09T12:03:12.585Z,5.90
2018-08-09T12:05:41.029Z,7.25
2018-08-09T12:08:09.495Z,6.53
2018-08-09T12:10:37.914Z,6.20
2018-08-09T12:13:06.409Z,6.30
2018-08-09T12:15:34.879Z,6.30
2018-08-09T12:18:08.668Z,6.87
2018-08-09T12:20:37.181Z,6.30
2018-08-09T12:23:05.669Z,6.70
2018-08-09T12:25:34.161Z,7.33
2018-08-09T12:28:02.659Z,6.17
2018-08-09T12:30:31.120Z,6.12
2018-08-09T12:32:59.585Z,5.37
2018-08-09T12:35:28.062Z,5.50
2018-08-09T12:37:56.961Z,5.87
2018-08-09T12:40:25.445Z,4.73
2018-08-09T12:42:54.005Z,4.47
2018-08-09T12:45:22.555Z,4.87
2018-08-09T12:47:51.032Z,4.77
2018-08-09T12:50:19.513Z,4.33
2018-08-09T12:52:48.479Z,4.47
2018-08-09T12:55:17.001Z,4.37
2018-08-09T12:57:45.477Z,4.20
2018-08-09T13:05:01.719Z,4.63
2018-08-09T13:07:30.185Z,4.67
2018-08-09T13:09:58.697Z,4.67
2018-08-09T13:12:27.285Z,4.40
2018-08-09T13:14:55.797Z,4.17
2018-08-09T13:17:24.332Z,3.60
2018-08-09T13:19:52.841Z,4.00
2018-08-09T13:22:21.327Z,4.53
2018-08-09T13:24:49.817Z,4.40
2018-08-09T13:27:18.302Z,5.00
2018-08-09T13:29:46.795Z,3.93
2018-08-09T13:32:15.309Z,3.30
2018-08-09T13:34:43.858Z,3.67
2018-08-09T13:37:12.393Z,3.73
2018-08-09T13:39:40.922Z,4.00
2018-08-09T13:42:09.378Z,3.73
2018-08-09T13:44:37.841Z,3.43
2018-08-09T13:47:06.321Z,3.50
2018-08-09T13:49:34.865Z,3.70
2018-08-09T13:52:03.404Z,3.30
2018-08-09T13:54:31.965Z,3.60
2018-08-09T13:57:00.434Z,3.53
2018-08-09T13:59:28.931Z,3.73
2018-08-09T14:01:57.383Z,3.40
2018-08-09T14:04:25.837Z,3.53
2018-08-09T14:06:54.345Z,3.47
2018-08-09T14:09:22.875Z,3.07
2018-08-09T14:11:51.355Z,2.77
2018-08-09T14:14:19.903Z,2.50
2018-08-09T14:16:48.438Z,3.10
2018-08-09T14:19:16.921Z,2.43
2018-08-09T14:21:45.401Z,2.80
2018-08-09T14:24:13.869Z,2.40
2018-08-09T14:26:42.373Z,2.73
2018-08-09T14:29:10.906Z,2.70
2018-08-09T14:31:39.581Z,2.40
2018-08-09T14:34:08.149Z,2.60
2018-08-09T14:36:36.653Z,2.80
2018-08-09T14:39:08.509Z,2.80
2018-08-09T14:41:36.986Z,2.33
2018-08-09T14:44:06.063Z,2.40
2018-08-09T14:46:34.930Z,2.60
2018-08-09T14:49:03.660Z,2.77
2018-08-09T14:51:33.080Z,2.40
2018-08-09T14:54:01.645Z,2.20
2018-08-09T14:56:30.158Z,2.60
2018-08-09T14:58:58.641Z,2.27
2018-08-09T15:01:27.199Z,2.10
2018-08-09T15:03:55.704Z,2.40
2018-08-09T15:06:24.248Z,2.37
2018-08-09T15:08:52.729Z,2.33
2018-08-09T15:11:22.286Z,2.87
2018-08-09T15:13:51.822Z,2.20
2018-08-09T15:16:20.353Z,2.70
2018-08-09T15:18:48.862Z,1.73
2018-08-09T15:21:17.419Z,2.30
2018-08-09T15:23:45.922Z,2.10
2018-08-09T15:26:14.405Z,2.17
2018-08-09T15:28:42.889Z,2.47
2018-08-09T15:31:11.393Z,2.07
2018-08-09T15:33:39.813Z,2.33
2018-08-09T15:36:08.302Z,2.30
2018-08-09T15:38:36.774Z,2.37
2018-08-09T15:41:05.310Z,2.47
2018-08-09T15:43:33.809Z,2.07
2018-08-09T15:46:02.444Z,2.60
2018-08-09T15:48:31.164Z,2.50
2018-08-09T15:50:59.977Z,2.67
2018-08-09T15:53:28.419Z,2.50
2018-08-09T15:55:57.071Z,2.70
2018-08-09T15:58:25.598Z,2.60
2018-08-09T16:00:54.078Z,2.93
2018-08-09T16:03:22.543Z,2.30
2018-08-09T16:05:51.008Z,2.23
2018-08-09T16:08:19.469Z,2.20
2018-08-09T16:10:47.942Z,2.70
2018-08-09T16:13:16.386Z,2.37
2018-08-09T16:15:44.870Z,2.60
2018-08-09T16:18:14.410Z,2.40
2018-08-09T16:20:42.878Z,2.63
2018-08-09T16:23:11.323Z,2.50
2018-08-09T16:25:39.818Z,2.33
2018-08-09T16:28:08.313Z,2.20
2018-08-09T16:30:36.801Z,2.70
2018-08-09T16:33:05.368Z,2.17
2018-08-09T16:35:34.001Z,1.97
2018-08-09T16:38:02.695Z,2.40
2018-08-09T16:40:31.221Z,2.23
2018-08-09T16:42:59.916Z,2.20
2018-08-09T16:45:29.269Z,2.30
2018-08-09T16:47:58.183Z,2.77
2018-08-09T16:50:27.305Z,2.47
2018-08-09T16:52:56.057Z,2.40
2018-08-09T16:55:25.433Z,1.90
2018-08-09T16:57:57.866Z,2.23
2018-08-09T17:00:26.640Z,2.07
2018-08-09T17:02:55.616Z,1.93
2018-08-09T17:05:26.024Z,1.90
2018-08-09T17:07:54.771Z,2.00
2018-08-09T17:10:24.745Z,2.10
2018-08-09T17:12:53.470Z,1.87
2018-08-09T17:15:24.266Z,2.23
2018-08-09T17:17:53.463Z,2.00
2018-08-09T17:20:27.718Z,1.80
2018-08-09T17:22:57.057Z,1.93
2018-08-09T17:25:25.799Z,2.20
2018-08-09T17:27:54.561Z,1.87
2018-08-09T17:30:25.221Z,1.83
2018-08-09T17:32:53.842Z,1.77
2018-08-09T17:35:22.467Z,1.83
2018-08-09T17:37:51.132Z,1.63
2018-08-09T17:40:25.653Z,2.00
2018-08-09T17:42:55.454Z,1.40
2018-08-09T17:45:26.033Z,1.80
2018-08-09T17:47:54.583Z,1.73
2018-08-09T17:50:23.093Z,1.50
2018-08-09T17:52:51.748Z,1.47
2018-08-09T17:55:20.330Z,1.90
2018-08-09T17:57:50.657Z,1.70
2018-08-09T18:00:24.170Z,1.50
2018-08-09T18:02:53.292Z,1.77
2018-08-09T18:05:21.901Z,1.60
2018-08-09T18:07:51.014Z,1.70
2018-08-09T18:10:21.832Z,1.50
2018-08-09T18:12:50.701Z,1.93
2018-08-09T18:15:20.731Z,1.67
2018-08-09T18:17:49.418Z,1.60
2018-08-09T18:20:20.097Z,1.70
2018-08-09T18:22:48.669Z,1.57
2018-08-09T18:25:17.373Z,1.60
2018-08-09T18:27:45.918Z,1.83
2018-08-09T18:30:16.515Z,2.00
2018-08-09T18:32:45.245Z,1.80
2018-08-09T18:35:15.479Z,1.87
2018-08-09T18:37:44.221Z,1.40
2018-08-09T18:40:16.128Z,1.47
2018-08-09T18:42:44.886Z,1.60
2018-08-09T18:45:13.631Z,2.00
2018-08-09T18:47:42.254Z,1.47
2018-08-09T18:50:14.365Z,1.70
2018-08-09T18:52:43.170Z,1.80
2018-08-09T18:55:12.587Z,2.10
2018-08-09T18:57:42.361Z,1.80
2018-08-09T19:00:17.698Z,2.20
2018-08-09T19:02:46.857Z,1.80
2018-08-09T19:05:15.547Z,2.30
2018-08-09T19:07:44.203Z,1.60
2018-08-09T19:10:16.435Z,2.20
2018-08-09T19:12:44.991Z,1.37
2018-08-09T19:15:14.314Z,2.23
2018-08-09T19:18:45.793Z,1.67
2018-08-09T19:21:14.396Z,2.17
2018-08-09T19:23:42.947Z,2.47
2018-08-09T19:26:11.511Z,1.50
2018-08-09T19:28:40.510Z,2.17
2018-08-09T19:31:09.110Z,2.07
2018-08-09T19:33:37.635Z,2.20
2018-08-09T19:36:06.185Z,1.83
2018-08-09T19:38:34.934Z,2.00
2018-08-09T19:41:03.496Z,1.93
2018-08-09T19:43:32.010Z,1.73
2018-08-09T19:46:00.590Z,2.10
2018-08-09T19:48:29.319Z,1.93
2018-08-09T19:50:57.817Z,2.13
2018-08-09T19:53:26.373Z,1.73
2018-08-09T19:55:54.901Z,1.63
2018-08-09T19:58:26.366Z,1.87
2018-08-09T20:00:54.909Z,2.10
2018-08-09T20:03:23.925Z,1.83
2018-08-09T20:05:52.530Z,1.90
2018-08-09T20:08:21.041Z,2.10
2018-08-09T20:10:49.566Z,2.10
2018-08-09T20:13:18.157Z,2.27
2018-08-09T20:15:46.748Z,1.93
2018-08-09T20:18:15.282Z,2.07
2018-08-09T20:20:43.822Z,2.17
2018-08-09T20:23:12.484Z,2.40
2018-08-09T20:25:41.031Z,2.50
2018-08-09T20:28:09.565Z,2.10
2018-08-09T20:30:38.050Z,2.17
2018-08-09T20:33:06.975Z,2.03
2018-08-09T20:35:36.030Z,2.20
2018-08-09T20:38:05.472Z,2.07
2018-08-09T20:40:35.159Z,2.17
2018-08-09T20:43:03.766Z,2.17
2018-08-09T20:45:33.542Z,2.50
2018-08-09T20:48:02.135Z,1.77
2018-08-09T20:50:31.616Z,2.00
2018-08-09T20:53:00.281Z,2.17
2018-08-09T20:55:28.875Z,1.80
2018-08-09T20:57:57.860Z,1.30
2018-08-09T21:00:28.237Z,1.00
2018-08-09T21:02:58.068Z,0.80
2018-08-09T21:05:29.049Z,0.80
2018-08-09T21:07:57.848Z,1.13
2018-08-09T21:10:27.003Z,0.80
2018-08-09T21:12:55.715Z,0.70
2018-08-09T21:15:24.815Z,1.10
2018-08-09T21:17:53.296Z,1.30
2018-08-09T21:20:22.039Z,1.20
2018-08-09T21:22:51.045Z,1.00
2018-08-09T21:25:19.782Z,1.27
2018-08-09T21:27:48.912Z,1.30
2018-08-09T21:30:18.692Z,1.30
2018-08-09T21:32:47.603Z,1.03
2018-08-09T21:35:16.084Z,1.20
2018-08-09T21:37:45.097Z,1.03
2018-08-09T21:40:14.312Z,0.83
2018-08-09T21:42:43.297Z,0.70
2018-08-09T21:45:14.983Z,0.70
2018-08-09T21:47:52.620Z,0.47
2018-08-09T21:50:22.346Z,0.40
2018-08-09T21:52:50.902Z,0.63
2018-08-09T21:55:19.377Z,0.43
2018-08-09T21:57:48.269Z,0.57
2018-08-09T22:00:57.513Z,0.60
2018-08-09T22:03:28.864Z,0.60
2018-08-09T22:06:02.765Z,0.60
2018-08-09T22:08:36.514Z,0.60
2018-08-09T22:11:10.661Z,0.57
2018-08-09T22:13:44.354Z,0.60
2018-08-09T22:16:18.173Z,0.80
2018-08-09T22:18:51.940Z,1.07
2018-08-09T22:21:25.654Z,1.10
2018-08-09T22:23:54.357Z,1.20
2018-08-09T22:26:22.839Z,1.00
2018-08-09T22:28:51.346Z,0.83
2018-08-09T22:31:19.897Z,0.90
2018-08-09T22:33:48.402Z,0.87
2018-08-09T22:36:16.862Z,1.10
2018-08-09T22:38:45.393Z,1.20
2018-08-09T22:41:13.972Z,0.90
2018-08-09T22:43:42.513Z,0.80
2018-08-09T22:46:10.990Z,0.80
2018-08-09T22:48:39.468Z,1.20
2018-08-09T22:51:28.206Z,1.17
2018-08-09T22:53:56.628Z,0.80
2018-08-09T22:56:25.166Z,0.50
2018-08-09T22:58:53.618Z,0.80
2018-08-09T23:01:22.081Z,0.60
2018-08-09T23:03:50.756Z,0.80
2018-08-09T23:06:19.289Z,0.77
2018-08-09T23:08:48.143Z,1.00
2018-08-09T23:11:17.334Z,0.67
2018-08-09T23:13:45.796Z,1.23
2018-08-09T23:16:14.223Z,0.57
2018-08-09T23:18:42.655Z,0.90
2018-08-09T23:21:11.149Z,0.87
2018-08-09T23:23:39.617Z,0.70
2018-08-09T23:26:08.070Z,0.70
2018-08-09T23:28:36.888Z,0.60
2018-08-09T23:31:05.553Z,1.20
2018-08-09T23:33:33.985Z,0.60
2018-08-09T23:36:02.451Z,0.73
2018-08-09T23:38:30.957Z,0.60
2018-08-09T23:40:59.435Z,0.70
2018-08-09T23:43:27.908Z,0.93
2018-08-09T23:45:56.424Z,0.90
2018-08-09T23:48:24.874Z,0.70
2018-08-09T23:50:53.389Z,0.90
2018-08-09T23:53:21.841Z,0.80
2018-08-09T23:55:50.347Z,1.20
2018-08-09T23:58:18.805Z,0.77
